Time;durP1;ratioP1;P1;durP2;ratioP2;P2;SDS_P1;SDS_P2;PMS_P1;PMS_P2;Temp;Humidity;BMP_temperature;BMP_pressure;BME280_temperature;BME280_humidity;BME280_pressure;Samples;Min_cycle;Max_cycle;Signal;HPM_P1;HPM_P2
2022/03/22 00:01:25;;;;;;;8.00;4.13;;;1.90;99.90;;;;;;5055578;28;20051;-75
2022/03/22 00:03:52;;;;;;;11.65;3.95;;;1.80;99.90;;;;;;5072723;28;20409;-75
2022/03/22 00:06:20;;;;;;;8.05;3.97;;;1.80;99.90;;;;;;5073161;28;20020;-75
2022/03/22 00:08:46;;;;;;;9.37;4.40;;;1.90;99.90;;;;;;5073126;28;20071;-75
2022/03/22 00:11:13;;;;;;;10.73;3.80;;;1.90;99.90;;;;;;5060046;28;20035;-76
2022/03/22 00:13:42;;;;;;;12.35;4.07;;;1.80;99.90;;;;;;5050671;28;20036;-76
2022/03/22 00:16:08;;;;;;;11.63;4.57;;;1.90;99.90;;;;;;5051051;28;20017;-76
2022/03/22 00:18:35;;;;;;;12.57;4.07;;;1.70;99.90;;;;;;5048247;28;20373;-76
2022/03/22 00:21:01;;;;;;;7.20;3.40;;;1.60;99.90;;;;;;5048843;28;20051;-76
2022/03/22 00:23:26;;;;;;;9.85;3.30;;;1.40;99.90;;;;;;5049536;28;20481;-76
2022/03/22 00:25:52;;;;;;;13.85;4.05;;;1.50;99.90;;;;;;5048104;28;20088;-77
2022/03/22 00:28:19;;;;;;;6.78;4.15;;;1.80;99.90;;;;;;5048218;28;20044;-76
2022/03/22 00:30:44;;;;;;;8.93;4.20;;;2.10;99.90;;;;;;5047792;28;20017;-75
2022/03/22 00:33:10;;;;;;;7.45;4.00;;;2.40;99.90;;;;;;5047787;28;20036;-76
2022/03/22 00:35:38;;;;;;;9.35;3.90;;;2.20;99.90;;;;;;5048590;28;20041;-77
2022/03/22 00:38:13;;;;;;;10.13;3.72;;;1.90;99.90;;;;;;5048278;28;20048;-76
2022/03/22 00:40:39;;;;;;;8.77;3.67;;;1.60;99.90;;;;;;5047997;28;20017;-76
2022/03/22 00:43:06;;;;;;;12.57;4.03;;;1.40;99.90;;;;;;5059277;28;20024;-78
2022/03/22 00:45:33;;;;;;;9.88;3.25;;;1.50;99.90;;;;;;5068975;28;20122;-77
2022/03/22 00:48:00;;;;;;;9.07;3.80;;;1.60;99.90;;;;;;5051095;28;20119;-77
2022/03/22 00:50:29;;;;;;;11.90;3.83;;;1.50;99.90;;;;;;5067509;28;20452;-77
2022/03/22 00:52:56;;;;;;;6.05;3.25;;;1.30;99.90;;;;;;5064920;28;20048;-77
2022/03/22 00:55:24;;;;;;;7.65;3.85;;;1.40;99.90;;;;;;5066904;28;20389;-76
2022/03/22 00:57:51;;;;;;;9.98;3.47;;;1.30;99.90;;;;;;5070079;28;20456;-74
2022/03/22 01:00:17;;;;;;;7.30;3.90;;;1.30;99.90;;;;;;5069373;28;20254;-74
2022/03/22 01:02:49;;;;;;;9.50;4.20;;;1.30;99.90;;;;;;5071080;28;20020;-74
2022/03/22 01:05:17;;;;;;;5.70;3.45;;;1.30;99.90;;;;;;5070200;28;20022;-74
2022/03/22 01:07:45;;;;;;;8.48;3.65;;;1.20;99.90;;;;;;5069727;28;20024;-75
2022/03/22 01:10:12;;;;;;;6.72;3.42;;;1.30;99.90;;;;;;5069574;28;20029;-75
2022/03/22 01:12:40;;;;;;;6.55;3.58;;;1.40;99.90;;;;;;5070284;28;20430;-74
2022/03/22 01:15:11;;;;;;;9.43;4.05;;;1.60;99.90;;;;;;5070806;28;20028;-76
2022/03/22 01:17:37;;;;;;;9.05;3.88;;;1.50;99.90;;;;;;5070487;28;20021;-74
2022/03/22 01:20:06;;;;;;;9.55;4.13;;;1.50;99.90;;;;;;5070441;28;20456;-74
2022/03/22 01:22:32;;;;;;;4.38;3.20;;;1.40;99.90;;;;;;5070497;28;20094;-75
2022/03/22 01:24:59;;;;;;;9.52;3.53;;;1.20;99.90;;;;;;5070052;28;20147;-74
2022/03/22 01:27:26;;;;;;;10.65;4.55;;;1.20;99.90;;;;;;5070206;28;20111;-74
2022/03/22 01:29:51;;;;;;;10.68;3.42;;;1.30;99.90;;;;;;5070770;28;20046;-74
2022/03/22 01:32:17;;;;;;;8.60;3.50;;;1.50;99.90;;;;;;5070009;28;20100;-75
2022/03/22 01:34:43;;;;;;;9.70;3.47;;;1.60;99.90;;;;;;5070203;28;20021;-74
2022/03/22 01:37:10;;;;;;;7.05;3.28;;;1.60;99.90;;;;;;5069892;28;20052;-75
2022/03/22 01:39:36;;;;;;;11.43;3.53;;;1.50;99.90;;;;;;5070052;28;20032;-74
2022/03/22 01:42:03;;;;;;;7.05;3.58;;;1.40;99.90;;;;;;5069670;28;20021;-75
2022/03/22 01:44:29;;;;;;;6.35;3.65;;;1.40;99.90;;;;;;5069725;28;20078;-75
2022/03/22 01:47:01;;;;;;;8.07;3.67;;;1.30;99.90;;;;;;5070075;28;20020;-74
2022/03/22 01:49:27;;;;;;;12.00;4.05;;;1.20;99.90;;;;;;5070159;28;20113;-75
2022/03/22 01:51:54;;;;;;;11.10;4.20;;;1.10;99.90;;;;;;5070341;28;20097;-75
2022/03/22 01:54:24;;;;;;;8.95;3.38;;;1.20;99.90;;;;;;5070039;28;20410;-74
2022/03/22 01:56:50;;;;;;;9.45;3.63;;;1.30;99.90;;;;;;5070282;28;20023;-74
2022/03/22 01:59:16;;;;;;;7.70;3.72;;;1.20;99.90;;;;;;5069799;28;20029;-74
2022/03/22 02:07:16;;;;;;;8.40;3.78;;;0.90;99.90;;;;;;5069783;28;20032;-74
2022/03/22 02:09:42;;;;;;;8.65;3.70;;;-0.70;99.90;;;;;;5069671;28;20025;-74
2022/03/22 02:12:09;;;;;;;8.73;4.75;;;0.70;99.90;;;;;;5069820;28;20024;-75
2022/03/22 02:14:35;;;;;;;15.45;5.05;;;0.70;99.90;;;;;;5070050;28;20039;-74
2022/03/22 02:17:10;;;;;;;14.95;4.75;;;0.60;99.90;;;;;;5070062;28;20028;-74
2022/03/22 02:19:39;;;;;;;11.70;3.92;;;0.50;99.90;;;;;;5070182;28;20013;-74
2022/03/22 02:22:09;;;;;;;9.10;4.53;;;0.50;99.90;;;;;;5069771;28;20104;-73
2022/03/22 02:24:36;;;;;;;12.30;3.80;;;0.60;99.90;;;;;;5070221;28;20583;-75
2022/03/22 02:27:02;;;;;;;8.18;3.88;;;0.60;99.90;;;;;;5069795;28;20255;-74
2022/03/22 02:29:28;;;;;;;5.85;3.67;;;0.60;99.90;;;;;;5070037;28;20617;-74
2022/03/22 02:31:54;;;;;;;8.60;4.03;;;0.50;99.90;;;;;;5070412;28;20040;-74
2022/03/22 02:34:20;;;;;;;14.07;4.60;;;0.50;99.90;;;;;;5069808;28;20032;-74
2022/03/22 02:36:46;;;;;;;18.55;4.43;;;0.50;99.90;;;;;;5069950;28;20361;-74
2022/03/22 02:39:12;;;;;;;12.18;4.32;;;0.60;99.90;;;;;;5070405;28;20237;-74
2022/03/22 02:41:38;;;;;;;17.85;4.65;;;0.60;99.90;;;;;;5069588;28;20033;-74
2022/03/22 02:44:04;;;;;;;15.20;4.60;;;0.50;99.90;;;;;;5070131;28;20032;-74
2022/03/22 02:46:30;;;;;;;8.00;3.25;;;0.40;99.90;;;;;;5069431;28;20368;-74
2022/03/22 02:48:56;;;;;;;9.52;3.40;;;0.40;99.90;;;;;;5069689;28;20464;-74
2022/03/22 02:51:21;;;;;;;7.50;4.05;;;0.40;99.90;;;;;;5069292;28;20044;-74
2022/03/22 02:53:47;;;;;;;9.00;3.72;;;0.40;99.90;;;;;;5051629;28;20466;-74
2022/03/22 02:56:13;;;;;;;10.20;3.60;;;0.30;99.90;;;;;;5072521;28;20450;-75
2022/03/22 02:58:39;;;;;;;8.23;3.63;;;0.40;99.90;;;;;;5072940;28;20259;-74
2022/03/22 03:01:05;;;;;;;9.45;3.67;;;0.30;99.90;;;;;;5072954;28;20021;-75
2022/03/22 03:03:32;;;;;;;10.90;4.00;;;0.30;99.90;;;;;;5073547;28;20070;-75
2022/03/22 03:05:59;;;;;;;11.95;3.78;;;0.10;99.90;;;;;;5072739;28;20465;-75
2022/03/22 03:08:26;;;;;;;7.72;3.65;;;0.10;99.90;;;;;;5072652;28;20492;-74
2022/03/22 03:10:53;;;;;;;14.18;4.53;;;0.00;99.90;;;;;;5072553;28;20017;-75
2022/03/22 03:13:18;;;;;;;6.90;3.45;;;-0.10;99.90;;;;;;5073148;28;20047;-74
2022/03/22 03:15:44;;;;;;;7.53;3.60;;;-0.10;99.90;;;;;;5073355;28;20489;-74
2022/03/22 03:18:10;;;;;;;14.68;4.55;;;-0.10;99.90;;;;;;5072820;28;20417;-74
2022/03/22 03:20:36;;;;;;;13.45;4.22;;;-0.10;99.90;;;;;;5073297;28;20133;-74
2022/03/22 03:23:02;;;;;;;16.08;4.78;;;-0.10;99.90;;;;;;5072372;28;20031;-74
2022/03/22 03:25:28;;;;;;;16.50;4.00;;;-0.20;99.90;;;;;;5072964;28;20016;-75
2022/03/22 03:27:54;;;;;;;10.50;3.40;;;-0.10;99.90;;;;;;5073007;28;20464;-75
2022/03/22 03:30:20;;;;;;;9.23;4.05;;;0.00;99.90;;;;;;5072683;28;20104;-74
2022/03/22 03:32:46;;;;;;;8.05;4.03;;;0.10;99.90;;;;;;5072825;28;20037;-73
2022/03/22 03:35:12;;;;;;;14.23;4.28;;;0.10;99.90;;;;;;5073042;28;20613;-74
2022/03/22 03:37:41;;;;;;;14.07;5.38;;;0.00;99.90;;;;;;5072420;28;20514;-74
2022/03/22 03:40:07;;;;;;;9.95;4.68;;;0.20;99.90;;;;;;5072344;28;20023;-74
2022/03/22 03:42:35;;;;;;;12.07;4.15;;;0.20;99.90;;;;;;5072551;28;20041;-74
2022/03/22 03:47:45;;;;;;;7.93;3.67;;;0.20;99.90;;;;;;5072136;28;20031;-74
2022/03/22 03:50:11;;;;;;;10.00;5.20;;;0.00;99.90;;;;;;5071690;28;20380;-74
2022/03/22 03:52:38;;;;;;;10.18;4.07;;;0.20;99.90;;;;;;5071414;28;20048;-74
2022/03/22 03:55:06;;;;;;;7.80;3.67;;;-0.20;99.90;;;;;;5071677;28;20031;-74
2022/03/22 03:57:32;;;;;;;15.40;5.30;;;-0.30;99.90;;;;;;5071721;28;20028;-75
2022/03/22 03:59:59;;;;;;;10.18;4.32;;;-0.20;99.90;;;;;;5071931;28;20020;-74
2022/03/22 04:02:24;;;;;;;9.82;3.92;;;-0.10;99.90;;;;;;5053793;28;20357;-78
2022/03/22 04:04:55;;;;;;;15.20;4.22;;;0.10;99.90;;;;;;5072046;28;20039;-74
2022/03/22 04:07:23;;;;;;;17.83;6.00;;;0.20;99.90;;;;;;5052406;28;20031;-75
2022/03/22 04:09:50;;;;;;;7.57;4.13;;;0.20;99.90;;;;;;5072071;28;20031;-74
2022/03/22 04:12:15;;;;;;;7.22;4.03;;;0.30;99.90;;;;;;5071384;28;20096;-74
2022/03/22 04:14:41;;;;;;;12.95;5.25;;;0.30;99.90;;;;;;5071368;28;20123;-75
2022/03/22 04:17:08;;;;;;;11.27;5.15;;;0.20;99.90;;;;;;5071223;28;20099;-75
2022/03/22 04:19:35;;;;;;;7.97;4.50;;;0.10;99.90;;;;;;5071486;28;20481;-74
2022/03/22 04:22:02;;;;;;;9.45;4.70;;;0.10;99.90;;;;;;5053077;28;20109;-78
2022/03/22 04:24:28;;;;;;;10.68;4.70;;;0.10;99.90;;;;;;5071441;28;20024;-75
2022/03/22 04:32:41;;;;;;;11.48;3.80;;;0.10;99.90;;;;;;5071045;28;20025;-74
2022/03/22 04:32:42;;;;;;;10.05;4.60;;;0.10;99.90;;;;;;5071529;28;20038;-74
2022/03/22 04:35:12;;;;;;;12.43;5.30;;;-0.20;99.90;;;;;;5071136;28;20036;-74
2022/03/22 04:37:38;;;;;;;11.82;4.90;;;-0.10;99.90;;;;;;5070842;28;20089;-74
2022/03/22 04:40:04;;;;;;;9.23;4.63;;;-0.20;99.90;;;;;;5071376;28;20456;-74
2022/03/22 04:42:30;;;;;;;11.90;5.82;;;-0.40;99.90;;;;;;5070557;28;20491;-74
2022/03/22 04:44:56;;;;;;;17.73;4.63;;;-0.50;99.90;;;;;;5070976;28;20032;-75
2022/03/22 04:47:21;;;;;;;11.80;4.60;;;-0.20;99.90;;;;;;5070783;28;20416;-74
2022/03/22 04:49:47;;;;;;;7.32;4.13;;;-0.30;99.90;;;;;;5071197;28;20056;-74
2022/03/22 04:57:41;;;;;;;14.30;4.97;;;-0.50;99.90;;;;;;5070971;28;20393;-74
2022/03/22 05:00:07;;;;;;;13.18;5.55;;;-0.40;99.90;;;;;;5070766;28;20025;-74
2022/03/22 05:02:34;;;;;;;12.85;5.13;;;-0.40;99.90;;;;;;5070822;28;20121;-74
2022/03/22 05:05:00;;;;;;;16.30;4.88;;;-0.20;99.90;;;;;;5070832;28;20103;-74
2022/03/22 05:07:26;;;;;;;11.63;4.53;;;0.00;99.90;;;;;;5070391;28;20103;-74
2022/03/22 05:09:52;;;;;;;13.27;5.93;;;-0.10;99.90;;;;;;5070645;28;20021;-74
2022/03/22 05:12:18;;;;;;;11.40;5.50;;;-0.20;99.90;;;;;;5070252;28;20119;-74
2022/03/22 05:14:45;;;;;;;11.43;4.85;;;-0.10;99.90;;;;;;5070409;28;20036;-75
2022/03/22 05:17:11;;;;;;;16.17;5.57;;;-0.50;99.90;;;;;;5070139;28;20032;-75
2022/03/22 05:19:38;;;;;;;12.75;5.15;;;-0.20;99.90;;;;;;5070838;28;20029;-75
2022/03/22 05:22:04;;;;;;;11.57;6.45;;;-0.40;99.90;;;;;;5070372;28;20031;-76
2022/03/22 05:24:30;;;;;;;13.63;7.38;;;-0.40;99.90;;;;;;5070654;28;20013;-75
2022/03/22 05:26:56;;;;;;;17.67;7.05;;;-0.40;99.90;;;;;;5070990;28;20032;-75
2022/03/22 05:29:21;;;;;;;14.05;4.95;;;-0.50;99.90;;;;;;5068853;28;20025;-74
2022/03/22 05:31:47;;;;;;;12.00;5.30;;;-0.70;99.90;;;;;;5069849;28;20028;-74
2022/03/22 05:34:13;;;;;;;9.95;5.78;;;-0.80;99.90;;;;;;5070388;28;20060;-75
2022/03/22 05:36:39;;;;;;;12.43;5.18;;;-0.90;99.90;;;;;;5068330;28;20476;-74
2022/03/22 05:39:05;;;;;;;16.08;6.57;;;-0.90;99.90;;;;;;5070311;28;20052;-74
2022/03/22 05:41:30;;;;;;;14.88;5.57;;;-0.90;99.90;;;;;;5070226;28;20029;-74
2022/03/22 05:43:56;;;;;;;14.63;6.07;;;-0.70;99.90;;;;;;5069817;28;20488;-74
2022/03/22 05:46:22;;;;;;;14.27;5.28;;;-0.70;99.90;;;;;;5069809;28;20025;-76
2022/03/22 05:48:48;;;;;;;16.20;5.35;;;-0.70;99.90;;;;;;5069833;28;20030;-74
2022/03/22 05:51:17;;;;;;;13.93;5.07;;;-0.80;99.90;;;;;;5066969;28;20029;-74
2022/03/22 05:53:44;;;;;;;8.75;4.82;;;-0.50;99.90;;;;;;5069754;28;20037;-74
2022/03/22 05:56:10;;;;;;;15.57;5.80;;;-0.70;99.90;;;;;;5069759;28;20036;-74
2022/03/22 05:58:36;;;;;;;15.82;5.43;;;-0.70;99.90;;;;;;5051619;28;20473;-75
2022/03/22 06:01:01;;;;;;;10.88;5.40;;;-0.40;99.90;;;;;;5070107;28;20028;-75
2022/03/22 06:03:27;;;;;;;12.75;5.40;;;-0.50;99.90;;;;;;5069687;28;20387;-75
2022/03/22 06:05:53;;;;;;;14.48;5.63;;;-0.60;99.90;;;;;;5069718;28;20025;-75
2022/03/22 06:08:19;;;;;;;12.07;6.03;;;-0.60;99.90;;;;;;5069190;28;20487;-74
2022/03/22 06:10:46;;;;;;;13.95;7.22;;;-0.10;99.90;;;;;;5069548;28;20013;-74
2022/03/22 06:13:11;;;;;;;15.40;6.75;;;-0.20;99.90;;;;;;5068213;28;20036;-75
2022/03/22 06:15:38;;;;;;;18.23;5.53;;;0.00;99.90;;;;;;5069454;28;20039;-74
2022/03/22 06:18:05;;;;;;;13.23;5.40;;;0.20;99.90;;;;;;5069547;28;20032;-75
2022/03/22 06:20:33;;;;;;;12.15;5.22;;;0.40;99.90;;;;;;5069817;28;20024;-75
2022/03/22 06:23:04;;;;;;;23.55;6.47;;;0.60;99.90;;;;;;5069109;28;20052;-75
2022/03/22 06:25:31;;;;;;;13.77;5.15;;;0.70;99.90;;;;;;5069507;28;20070;-75
2022/03/22 06:27:58;;;;;;;10.95;6.10;;;1.10;99.90;;;;;;5068157;28;20024;-74
2022/03/22 06:30:24;;;;;;;17.98;7.68;;;1.30;99.90;;;;;;5072423;28;20029;-75
2022/03/22 06:32:52;;;;;;;16.20;6.93;;;1.50;99.90;;;;;;5082172;28;20024;-75
2022/03/22 06:35:23;;;;;;;12.88;6.53;;;1.70;99.90;;;;;;5084569;28;20048;-75
2022/03/22 06:37:50;;;;;;;15.65;5.88;;;1.80;99.90;;;;;;5063583;28;20017;-75
2022/03/22 06:40:18;;;;;;;15.30;7.03;;;1.90;99.90;;;;;;5057548;28;20083;-75
2022/03/22 06:42:44;;;;;;;11.68;6.47;;;1.90;99.90;;;;;;5050784;28;20263;-74
2022/03/22 06:45:11;;;;;;;19.85;7.20;;;2.00;99.90;;;;;;5049783;28;20508;-74
2022/03/22 06:47:39;;;;;;;24.05;6.40;;;2.20;99.90;;;;;;5049529;28;20017;-75
2022/03/22 06:50:06;;;;;;;16.52;6.40;;;2.40;99.90;;;;;;5049996;28;20032;-75
2022/03/22 06:52:32;;;;;;;16.98;6.80;;;2.40;99.90;;;;;;5049444;28;20049;-75
2022/03/22 06:54:58;;;;;;;14.98;6.70;;;2.50;99.90;;;;;;5051360;28;20029;-74
2022/03/22 06:57:24;;;;;;;14.25;7.20;;;2.70;99.90;;;;;;5050566;28;20025;-74
2022/03/22 06:59:50;;;;;;;19.70;7.45;;;2.80;99.90;;;;;;5034771;28;20052;-75
2022/03/22 07:02:18;;;;;;;14.52;6.38;;;2.90;99.90;;;;;;5052483;28;20133;-75
2022/03/22 07:04:44;;;;;;;13.80;7.05;;;3.00;99.90;;;;;;5036171;28;20025;-76
2022/03/22 07:07:10;;;;;;;22.02;7.07;;;3.10;99.90;;;;;;5054194;28;20051;-75
2022/03/22 07:09:35;;;;;;;13.85;6.63;;;3.20;99.90;;;;;;5036269;28;20106;-75
2022/03/22 07:12:01;;;;;;;15.70;7.22;;;3.50;99.90;;;;;;5055237;28;20024;-75
2022/03/22 07:14:28;;;;;;;14.88;7.07;;;3.70;99.90;;;;;;5042522;28;20028;-75
2022/03/22 07:16:55;;;;;;;19.67;6.85;;;3.80;99.90;;;;;;5044933;28;20021;-75
2022/03/22 07:19:22;;;;;;;16.48;6.72;;;4.00;99.90;;;;;;5053050;28;20029;-75
2022/03/22 07:21:48;;;;;;;12.80;6.03;;;4.20;99.90;;;;;;5037199;28;20029;-75
2022/03/22 07:24:18;;;;;;;16.05;6.38;;;4.30;99.90;;;;;;5051135;28;20091;-75
2022/03/22 07:26:44;;;;;;;11.35;6.28;;;4.40;99.90;;;;;;5052721;28;20097;-75
2022/03/22 07:29:10;;;;;;;27.60;9.45;;;4.60;99.90;;;;;;5057174;28;20488;-74
2022/03/22 07:31:39;;;;;;;17.85;6.50;;;4.80;99.90;;;;;;5054529;28;20021;-75
2022/03/22 07:34:06;;;;;;;15.73;6.47;;;5.00;99.90;;;;;;5060031;28;20098;-75
2022/03/22 07:36:33;;;;;;;16.52;6.72;;;5.40;99.90;;;;;;5061039;28;20140;-75
2022/03/22 07:39:00;;;;;;;15.88;7.38;;;5.70;99.90;;;;;;5043025;28;20021;-75
2022/03/22 07:41:26;;;;;;;23.60;7.82;;;5.90;99.90;;;;;;5059108;28;20021;-74
2022/03/22 07:43:54;;;;;;;15.43;8.10;;;6.10;99.90;;;;;;5058887;28;20344;-75
2022/03/22 07:46:20;;;;;;;16.90;7.07;;;6.30;99.90;;;;;;5061927;28;20260;-75
2022/03/22 07:48:46;;;;;;;20.95;8.82;;;6.50;99.90;;;;;;5058105;28;20158;-75
2022/03/22 07:53:56;;;;;;;21.23;8.77;;;7.00;99.90;;;;;;5051207;28;20040;-75
2022/03/22 07:56:22;;;;;;;23.95;9.75;;;7.30;99.90;;;;;;5053703;28;20021;-77
2022/03/22 07:58:47;;;;;;;21.80;8.95;;;7.50;99.90;;;;;;5052098;28;20476;-74
2022/03/22 08:01:13;;;;;;;16.45;8.52;;;7.50;99.90;;;;;;5054474;28;20357;-74
2022/03/22 08:03:39;;;;;;;15.48;7.78;;;7.60;99.90;;;;;;5053479;28;20029;-78
2022/03/22 08:06:07;;;;;;;24.27;8.15;;;6.70;99.90;;;;;;5051721;28;20021;-77
2022/03/22 08:08:34;;;;;;;22.98;8.23;;;8.00;99.90;;;;;;5051837;28;20025;-74
2022/03/22 08:11:00;;;;;;;23.55;9.48;;;8.20;99.90;;;;;;5050953;28;20453;-75
2022/03/22 08:13:26;;;;;;;23.77;9.48;;;8.30;99.90;;;;;;5049776;28;20032;-75
2022/03/22 08:15:52;;;;;;;18.17;9.23;;;8.50;99.60;;;;;;5049569;28;20056;-75
2022/03/22 08:18:17;;;;;;;19.73;9.15;;;8.70;96.60;;;;;;5050215;28;20436;-75
2022/03/22 08:20:43;;;;;;;20.48;8.25;;;8.70;95.40;;;;;;5049337;28;20378;-75
2022/03/22 08:23:09;;;;;;;20.40;9.20;;;8.90;96.10;;;;;;5048855;28;20021;-74
2022/03/22 08:25:37;;;;;;;19.27;8.15;;;8.80;95.90;;;;;;5048141;28;20024;-75
2022/03/22 08:28:06;;;;;;;17.38;9.07;;;8.90;93.60;;;;;;5049154;28;20013;-75
2022/03/22 08:30:32;;;;;;;26.02;8.38;;;8.90;92.70;;;;;;5049152;28;20132;-74
2022/03/22 08:33:00;;;;;;;19.40;9.40;;;9.10;93.60;;;;;;5049293;28;20441;-75
2022/03/22 08:35:26;;;;;;;18.75;9.00;;;9.20;92.30;;;;;;5049364;28;20122;-75
2022/03/22 08:37:53;;;;;;;21.50;9.57;;;9.30;93.20;;;;;;5052379;28;20333;-74
2022/03/22 08:40:20;;;;;;;22.42;9.15;;;9.30;92.50;;;;;;5047981;28;20507;-75
2022/03/22 08:42:48;;;;;;;18.15;7.63;;;9.40;92.50;;;;;;5061295;28;20033;-75
2022/03/22 08:45:17;;;;;;;17.27;8.27;;;9.40;91.30;;;;;;5034704;28;20025;-75
2022/03/22 08:47:45;;;;;;;19.75;8.98;;;9.60;90.50;;;;;;5059142;28;20337;-75
2022/03/22 08:50:14;;;;;;;20.60;8.97;;;9.80;90.60;;;;;;5060994;28;20313;-75
2022/03/22 08:52:41;;;;;;;21.15;8.98;;;9.90;87.60;;;;;;5055315;28;20288;-75
2022/03/22 08:55:09;;;;;;;21.27;9.85;;;9.90;85.80;;;;;;5059736;28;20021;-75
2022/03/22 08:57:35;;;;;;;20.98;9.02;;;10.00;87.20;;;;;;5060482;28;20025;-75
2022/03/22 09:00:05;;;;;;;15.80;8.45;;;10.20;84.60;;;;;;5060137;28;20229;-75
2022/03/22 09:02:31;;;;;;;18.70;8.13;;;10.10;83.80;;;;;;5060022;28;20013;-75
2022/03/22 09:07:41;;;;;;;18.25;9.02;;;10.10;84.00;;;;;;5048877;28;20091;-75
2022/03/22 09:10:08;;;;;;;16.65;8.00;;;10.10;83.70;;;;;;5049415;28;20075;-75
2022/03/22 09:12:34;;;;;;;20.15;8.80;;;10.10;84.20;;;;;;5049507;28;20466;-75
2022/03/22 09:15:01;;;;;;;25.85;10.00;;;10.10;87.60;;;;;;5049470;28;20107;-75
2022/03/22 09:17:27;;;;;;;16.48;9.15;;;10.10;84.40;;;;;;5049619;28;20095;-76
2022/03/22 09:19:53;;;;;;;17.02;8.80;;;9.90;83.20;;;;;;5049475;28;20275;-75
2022/03/22 09:22:19;;;;;;;18.65;8.65;;;10.10;82.80;;;;;;5049691;28;20290;-75
2022/03/22 09:24:44;;;;;;;17.13;8.52;;;10.20;82.40;;;;;;5050607;28;20458;-75
2022/03/22 09:27:10;;;;;;;15.52;7.68;;;10.20;80.10;;;;;;5050265;28;20080;-76
2022/03/22 09:29:36;;;;;;;17.35;8.75;;;10.40;80.50;;;;;;5049729;28;20017;-75
2022/03/22 09:32:01;;;;;;;17.65;8.13;;;10.50;78.40;;;;;;5049639;28;20025;-75
2022/03/22 09:34:28;;;;;;;17.50;8.30;;;10.60;82.00;;;;;;5049613;28;20547;-75
2022/03/22 09:36:54;;;;;;;16.52;8.25;;;10.60;79.40;;;;;;5049616;28;20268;-75
2022/03/22 09:39:20;;;;;;;17.20;8.35;;;10.60;80.20;;;;;;5050415;28;20193;-75
2022/03/22 09:41:48;;;;;;;18.42;8.15;;;10.70;81.80;;;;;;5050446;28;20092;-75
2022/03/22 09:44:18;;;;;;;21.23;7.70;;;10.70;80.90;;;;;;5051165;28;20021;-75
2022/03/22 09:46:50;;;;;;;16.13;8.40;;;10.90;82.00;;;;;;5052876;28;20418;-75
2022/03/22 09:49:18;;;;;;;22.50;9.25;;;11.10;78.70;;;;;;5053431;28;20029;-75
2022/03/22 09:51:44;;;;;;;19.17;8.57;;;11.00;77.10;;;;;;5049391;28;20194;-75
2022/03/22 09:54:14;;;;;;;19.00;7.05;;;11.10;79.10;;;;;;5052194;28;20571;-75
2022/03/22 09:56:40;;;;;;;;;;;11.20;75.20;;;;;;5047090;28;20103;-74
2022/03/22 09:59:06;;;;;;;14.20;6.97;;;11.20;74.60;;;;;;5048227;28;19915;-75
2022/03/22 10:01:33;;;;;;;13.60;6.03;;;11.30;75.00;;;;;;5048215;28;20022;-76
2022/03/22 10:04:07;;;;;;;18.25;7.65;;;11.50;75.30;;;;;;5049912;28;20032;-75
2022/03/22 10:06:34;;;;;;;18.42;7.32;;;11.60;73.00;;;;;;5051048;28;20021;-76
2022/03/22 10:09:01;;;;;;;14.80;6.60;;;11.60;72.00;;;;;;5050957;28;20028;-76
2022/03/22 10:11:43;;;;;;;14.65;6.55;;;11.80;71.40;;;;;;5050831;28;20033;-75
2022/03/22 10:14:10;;;;;;;13.68;6.40;;;11.80;71.60;;;;;;5050879;28;20098;-75
2022/03/22 10:16:50;;;;;;;12.48;6.40;;;11.90;70.90;;;;;;5053122;28;20021;-75
2022/03/22 10:19:24;;;;;;;15.63;7.15;;;11.90;70.50;;;;;;5049668;28;20052;-75
2022/03/22 10:21:52;;;;;;;15.50;7.00;;;11.70;67.90;;;;;;5050154;28;20032;-75
2022/03/22 10:24:18;;;;;;;15.60;6.70;;;11.70;68.80;;;;;;5050847;28;20025;-75
2022/03/22 10:26:46;;;;;;;14.45;6.93;;;11.60;68.50;;;;;;5051842;28;20029;-75
2022/03/22 10:29:14;;;;;;;15.65;7.50;;;11.90;70.20;;;;;;5052751;28;20120;-75
2022/03/22 10:31:42;;;;;;;15.55;6.82;;;12.10;70.50;;;;;;5049988;28;20021;-75
2022/03/22 10:34:10;;;;;;;17.05;7.90;;;12.20;68.50;;;;;;5051695;28;20104;-75
2022/03/22 10:36:37;;;;;;;13.82;7.07;;;12.30;68.70;;;;;;5055655;28;20043;-76
2022/03/22 10:39:11;;;;;;;17.60;7.30;;;12.60;68.40;;;;;;5059486;28;20029;-78
2022/03/22 10:41:43;;;;;;;15.05;7.20;;;12.40;67.10;;;;;;5050644;28;20036;-76
2022/03/22 10:44:14;;;;;;;17.42;7.43;;;12.30;67.50;;;;;;5049860;28;20029;-75
2022/03/22 10:46:43;;;;;;;15.48;7.72;;;12.50;67.80;;;;;;5052547;28;20021;-76
2022/03/22 10:49:15;;;;;;;20.48;7.55;;;12.60;66.90;;;;;;5055350;28;20456;-76
2022/03/22 10:51:44;;;;;;;17.27;6.60;;;12.70;67.40;;;;;;5057783;28;20044;-76
2022/03/22 10:54:17;;;;;;;15.45;7.03;;;12.70;68.00;;;;;;5070059;28;20028;-75
2022/03/22 10:56:52;;;;;;;12.48;7.05;;;12.80;66.70;;;;;;5070945;28;20031;-75
2022/03/22 10:59:21;;;;;;;16.35;7.28;;;12.90;66.60;;;;;;5053014;28;20146;-76
2022/03/22 11:01:48;;;;;;;15.52;7.60;;;12.90;65.20;;;;;;5069243;28;20074;-76
2022/03/22 11:04:15;;;;;;;15.45;7.28;;;12.90;65.80;;;;;;5072132;28;20060;-76
2022/03/22 11:06:53;;;;;;;12.07;6.45;;;13.00;63.80;;;;;;5069320;28;20063;-76
2022/03/22 11:09:24;;;;;;;15.27;7.05;;;13.10;64.40;;;;;;5072052;28;20099;-76
2022/03/22 11:11:50;;;;;;;15.02;7.05;;;13.10;61.60;;;;;;5078930;28;20229;-75
2022/03/22 11:14:17;;;;;;;15.80;6.90;;;13.10;62.20;;;;;;5079192;28;20040;-76
2022/03/22 11:16:48;;;;;;;13.70;6.00;;;13.30;60.50;;;;;;5079373;28;20175;-76
2022/03/22 11:19:17;;;;;;;12.20;6.70;;;13.40;60.20;;;;;;5058925;28;20089;-75
2022/03/22 11:21:42;;;;;;;19.45;7.47;;;13.50;62.10;;;;;;5075973;28;20373;-76
2022/03/22 11:24:12;;;;;;;18.20;7.25;;;13.50;62.60;;;;;;5069240;28;20027;-81
2022/03/22 11:26:43;;;;;;;13.38;7.63;;;13.60;61.00;;;;;;5069414;28;20412;-75
2022/03/22 11:29:14;;;;;;;12.20;6.93;;;13.60;62.00;;;;;;5070535;28;20052;-77
2022/03/22 11:31:42;;;;;;;10.88;7.38;;;13.80;63.90;;;;;;5069111;28;20059;-76
2022/03/22 11:34:09;;;;;;;11.90;6.80;;;13.60;64.20;;;;;;5069162;28;20024;-76
2022/03/22 11:36:43;;;;;;;13.52;6.72;;;13.70;64.50;;;;;;5068894;28;20023;-76
2022/03/22 11:39:09;;;;;;;11.25;6.25;;;13.70;63.30;;;;;;5066325;28;20128;-78
2022/03/22 11:44:36;;;;;;;8.98;6.32;;;14.00;63.20;;;;;;5067619;28;20047;-78
2022/03/22 11:47:17;;;;;;;12.20;5.70;;;14.10;61.70;;;;;;5048681;28;20100;-79
2022/03/22 11:50:09;;;;;;;15.80;7.03;;;14.20;62.00;;;;;;5048143;28;20021;-78
2022/03/22 11:52:41;;;;;;;13.90;6.13;;;14.40;62.50;;;;;;5065757;28;20052;-78
2022/03/22 11:55:19;;;;;;;13.68;6.20;;;14.20;62.40;;;;;;5068311;28;20033;-76
2022/03/22 11:58:00;;;;;;;11.75;5.63;;;14.40;61.20;;;;;;5068566;28;20020;-77
2022/03/22 12:00:51;;;;;;;14.27;7.00;;;14.70;61.30;;;;;;5067081;28;20031;-76
2022/03/22 12:03:25;;;;;;;13.85;6.20;;;14.70;60.00;;;;;;5065320;28;20062;-76
2022/03/22 12:05:54;;;;;;;15.20;7.18;;;14.90;59.60;;;;;;5066493;28;20031;-76
2022/03/22 12:08:20;;;;;;;10.35;5.90;;;15.00;60.10;;;;;;5067970;28;20029;-76
2022/03/22 12:10:51;;;;;;;14.25;6.32;;;15.40;58.70;;;;;;5067742;28;20302;-76
2022/03/22 12:13:17;;;;;;;12.85;6.60;;;15.90;57.40;;;;;;5067378;28;20031;-76
2022/03/22 12:15:43;;;;;;;15.40;6.80;;;16.00;56.60;;;;;;5067884;28;20124;-76
2022/03/22 12:18:11;;;;;;;11.43;6.55;;;16.10;56.10;;;;;;5068330;28;20031;-76
2022/03/22 12:20:37;;;;;;;9.38;5.22;;;16.80;54.00;;;;;;5049760;28;20032;-77
2022/03/22 12:23:03;;;;;;;12.52;6.32;;;17.00;53.80;;;;;;5067928;28;20313;-77
2022/03/22 12:25:34;;;;;;;11.77;6.43;;;16.60;55.70;;;;;;5067966;28;20378;-76
2022/03/22 12:28:08;;;;;;;15.45;6.53;;;17.60;53.10;;;;;;5067001;28;20317;-75
2022/03/22 12:30:44;;;;;;;13.45;5.75;;;16.60;53.80;;;;;;5067172;28;20024;-75
2022/03/22 12:33:14;;;;;;;11.60;6.18;;;17.20;54.10;;;;;;5067304;28;20070;-76
2022/03/22 12:35:42;;;;;;;15.25;5.88;;;17.50;53.30;;;;;;5067152;28;20024;-75
2022/03/22 12:38:09;;;;;;;10.10;5.78;;;18.60;52.50;;;;;;5065764;28;20096;-79
2022/03/22 12:40:36;;;;;;;11.15;6.57;;;19.20;50.30;;;;;;5067145;28;20313;-79
2022/03/22 12:43:03;;;;;;;16.98;5.70;;;18.90;50.40;;;;;;5067520;28;20086;-78
2022/03/22 12:45:33;;;;;;;13.27;5.80;;;19.40;50.90;;;;;;5067233;28;20347;-79
2022/03/22 12:47:59;;;;;;;;;;;19.70;50.00;;;;;;5068348;28;20539;-79
2022/03/22 12:50:30;;;;;;;11.02;5.18;;;19.30;49.50;;;;;;5051603;28;19909;-76
2022/03/22 12:52:56;;;;;;;7.78;5.32;;;20.10;49.20;;;;;;5069442;28;20328;-79
2022/03/22 12:55:23;;;;;;;9.55;5.30;;;20.10;48.80;;;;;;5068795;28;20134;-79
2022/03/22 12:57:51;;;;;;;8.27;5.53;;;20.50;47.20;;;;;;5049319;28;20034;-79
2022/03/22 13:00:28;;;;;;;13.57;5.88;;;19.80;48.40;;;;;;5066629;28;20025;-78
2022/03/22 13:02:55;;;;;;;12.32;6.55;;;19.80;48.60;;;;;;5066499;28;20083;-79
2022/03/22 13:05:28;;;;;;;15.70;6.32;;;18.60;47.30;;;;;;5078284;28;20039;-79
2022/03/22 13:07:58;;;;;;;9.02;5.63;;;20.40;47.50;;;;;;5078361;28;20051;-80
2022/03/22 13:13:19;;;;;;;9.65;5.20;;;19.50;48.30;;;;;;5076551;28;20044;-77
2022/03/22 13:15:52;;;;;;;10.02;6.15;;;20.10;49.00;;;;;;5077365;28;20452;-79